sensor_id;sensor_type;location;lat;lon;timestamp;temperature;humidity
12470;DHT22;36499;46.484;13.832;2023-04-01T00:01:00;8.60;99.90
12470;DHT22;36499;46.484;13.832;2023-04-01T00:03:28;8.60;99.90
12470;DHT22;36499;46.484;13.832;2023-04-01T00:05:57;8.50;99.90
12470;DHT22;36499;46.484;13.832;2023-04-01T00:08:29;8.50;99.90
12470;DHT22;36499;46.484;13.832;2023-04-01T00:10:57;8.40;99.90
12470;DHT22;36499;46.484;13.832;2023-04-01T00:13:25;8.40;99.90
12470;DHT22;36499;46.484;13.832;2023-04-01T00:15:54;8.30;99.90
12470;DHT22;36499;46.484;13.832;2023-04-01T00:18:23;8.30;99.90
12470;DHT22;36499;46.484;13.832;2023-04-01T00:20:52;8.30;99.90
12470;DHT22;36499;46.484;13.832;2023-04-01T00:23:20;8.30;99.90
12470;DHT22;36499;46.484;13.832;2023-04-01T00:25:48;8.30;99.90
12470;DHT22;36499;46.484;13.832;2023-04-01T00:28:16;8.30;99.90
12470;DHT22;36499;46.484;13.832;2023-04-01T00:30:44;8.30;99.90
12470;DHT22;36499;46.484;13.832;2023-04-01T00:33:14;8.30;99.90
12470;DHT22;36499;46.484;13.832;2023-04-01T00:35:42;8.30;99.90
12470;DHT22;36499;46.484;13.832;2023-04-01T00:38:10;8.30;99.90
12470;DHT22;36499;46.484;13.832;2023-04-01T00:40:40;8.30;99.90
12470;DHT22;36499;46.484;13.832;2023-04-01T00:43:12;8.30;99.90
12470;DHT22;36499;46.484;13.832;2023-04-01T00:45:45;8.30;99.90
12470;DHT22;36499;46.484;13.832;2023-04-01T00:48:18;8.30;99.90
12470;DHT22;36499;46.484;13.832;2023-04-01T00:50:49;8.30;99.90
12470;DHT22;36499;46.484;13.832;2023-04-01T00:53:21;8.20;99.90
12470;DHT22;36499;46.484;13.832;2023-04-01T00:55:54;8.20;99.90
12470;DHT22;36499;46.484;13.832;2023-04-01T00:58:28;8.20;99.90
12470;DHT22;36499;46.484;13.832;2023-04-01T01:00:58;8.20;99.90
12470;DHT22;36499;46.484;13.832;2023-04-01T01:03:28;8.20;99.90
12470;DHT22;36499;46.484;13.832;2023-04-01T01:06:15;8.10;99.90
12470;DHT22;36499;46.484;13.832;2023-04-01T01:09:06;8.10;99.90
12470;DHT22;36499;46.484;13.832;2023-04-01T01:11:44;8.10;99.90
12470;DHT22;36499;46.484;13.832;2023-04-01T01:14:26;8.00;99.90
12470;DHT22;36499;46.484;13.832;2023-04-01T01:17:09;8.00;99.90
12470;DHT22;36499;46.484;13.832;2023-04-01T01:19:57;8.00;99.90
12470;DHT22;36499;46.484;13.832;2023-04-01T01:22:52;8.00;99.90
12470;DHT22;36499;46.484;13.832;2023-04-01T01:25:38;8.00;99.90
12470;DHT22;36499;46.484;13.832;2023-04-01T01:28:29;7.90;99.90
12470;DHT22;36499;46.484;13.832;2023-04-01T01:31:14;7.90;99.90
12470;DHT22;36499;46.484;13.832;2023-04-01T01:34:06;7.90;99.90
12470;DHT22;36499;46.484;13.832;2023-04-01T01:36:46;7.90;99.90
12470;DHT22;36499;46.484;13.832;2023-04-01T01:39:20;7.90;99.90
12470;DHT22;36499;46.484;13.832;2023-04-01T01:41:55;7.90;99.90
12470;DHT22;36499;46.484;13.832;2023-04-01T01:44:25;7.90;99.90
12470;DHT22;36499;46.484;13.832;2023-04-01T01:46:56;7.90;99.90
12470;DHT22;36499;46.484;13.832;2023-04-01T01:49:24;7.90;99.90
12470;DHT22;36499;46.484;13.832;2023-04-01T01:51:57;7.90;99.90
12470;DHT22;36499;46.484;13.832;2023-04-01T01:54:25;7.90;99.90
12470;DHT22;36499;46.484;13.832;2023-04-01T01:56:57;7.80;99.90
12470;DHT22;36499;46.484;13.832;2023-04-01T01:59:33;7.90;99.90
12470;DHT22;36499;46.484;13.832;2023-04-01T02:02:06;7.80;99.90
12470;DHT22;36499;46.484;13.832;2023-04-01T02:04:38;7.80;99.90
12470;DHT22;36499;46.484;13.832;2023-04-01T02:07:11;7.80;99.90
12470;DHT22;36499;46.484;13.832;2023-04-01T02:09:45;7.70;99.90
12470;DHT22;36499;46.484;13.832;2023-04-01T02:12:14;7.70;99.90
12470;DHT22;36499;46.484;13.832;2023-04-01T02:14:47;7.70;99.90
12470;DHT22;36499;46.484;13.832;2023-04-01T02:17:20;7.70;99.90
12470;DHT22;36499;46.484;13.832;2023-04-01T02:19:51;7.70;99.90
12470;DHT22;36499;46.484;13.832;2023-04-01T02:22:25;7.70;99.90
12470;DHT22;36499;46.484;13.832;2023-04-01T02:24:59;7.60;99.90
12470;DHT22;36499;46.484;13.832;2023-04-01T02:27:30;7.60;99.90
12470;DHT22;36499;46.484;13.832;2023-04-01T02:29:58;7.60;99.90
12470;DHT22;36499;46.484;13.832;2023-04-01T02:32:26;7.60;99.90
12470;DHT22;36499;46.484;13.832;2023-04-01T02:34:56;7.50;99.90
12470;DHT22;36499;46.484;13.832;2023-04-01T02:37:26;7.50;99.90
12470;DHT22;36499;46.484;13.832;2023-04-01T02:39:54;7.40;99.90
12470;DHT22;36499;46.484;13.832;2023-04-01T02:42:25;7.40;99.90
12470;DHT22;36499;46.484;13.832;2023-04-01T02:44:52;7.30;99.90
12470;DHT22;36499;46.484;13.832;2023-04-01T02:47:19;7.30;99.90
12470;DHT22;36499;46.484;13.832;2023-04-01T02:49:46;7.30;99.90
12470;DHT22;36499;46.484;13.832;2023-04-01T02:52:13;7.30;99.90
12470;DHT22;36499;46.484;13.832;2023-04-01T02:54:42;7.30;99.90
12470;DHT22;36499;46.484;13.832;2023-04-01T02:57:09;7.20;99.90
12470;DHT22;36499;46.484;13.832;2023-04-01T02:59:36;7.20;99.90
12470;DHT22;36499;46.484;13.832;2023-04-01T03:02:03;7.20;99.90
12470;DHT22;36499;46.484;13.832;2023-04-01T03:04:32;7.10;99.90
12470;DHT22;36499;46.484;13.832;2023-04-01T03:06:59;7.10;99.90
12470;DHT22;36499;46.484;13.832;2023-04-01T03:09:26;7.10;99.90
12470;DHT22;36499;46.484;13.832;2023-04-01T03:11:56;7.10;99.90
12470;DHT22;36499;46.484;13.832;2023-04-01T03:14:23;7.10;99.90
12470;DHT22;36499;46.484;13.832;2023-04-01T03:16:51;7.10;99.90
12470;DHT22;36499;46.484;13.832;2023-04-01T03:19:18;7.10;99.90
12470;DHT22;36499;46.484;13.832;2023-04-01T03:21:45;7.10;99.90
12470;DHT22;36499;46.484;13.832;2023-04-01T03:24:12;7.00;99.90
12470;DHT22;36499;46.484;13.832;2023-04-01T03:26:39;7.00;99.90
12470;DHT22;36499;46.484;13.832;2023-04-01T03:29:08;7.00;99.90
12470;DHT22;36499;46.484;13.832;2023-04-01T03:31:35;7.00;99.90
12470;DHT22;36499;46.484;13.832;2023-04-01T03:34:02;7.00;99.90
12470;DHT22;36499;46.484;13.832;2023-04-01T03:36:29;6.90;99.90
12470;DHT22;36499;46.484;13.832;2023-04-01T03:38:56;7.00;99.90
12470;DHT22;36499;46.484;13.832;2023-04-01T03:41:24;6.90;99.90
12470;DHT22;36499;46.484;13.832;2023-04-01T03:43:53;6.90;99.90
12470;DHT22;36499;46.484;13.832;2023-04-01T03:46:22;6.90;99.90
12470;DHT22;36499;46.484;13.832;2023-04-01T03:48:49;6.90;99.90
12470;DHT22;36499;46.484;13.832;2023-04-01T03:51:16;6.90;99.90
12470;DHT22;36499;46.484;13.832;2023-04-01T03:53:43;6.80;99.90
12470;DHT22;36499;46.484;13.832;2023-04-01T03:56:10;6.80;99.90
12470;DHT22;36499;46.484;13.832;2023-04-01T03:58:38;6.80;99.90
12470;DHT22;36499;46.484;13.832;2023-04-01T04:01:14;6.80;99.90
12470;DHT22;36499;46.484;13.832;2023-04-01T04:03:45;6.80;99.90
12470;DHT22;36499;46.484;13.832;2023-04-01T04:06:13;6.80;99.90
12470;DHT22;36499;46.484;13.832;2023-04-01T04:08:40;6.80;99.90
12470;DHT22;36499;46.484;13.832;2023-04-01T04:11:08;6.70;99.90
12470;DHT22;36499;46.484;13.832;2023-04-01T04:13:35;6.70;99.90
12470;DHT22;36499;46.484;13.832;2023-04-01T04:16:03;6.70;99.90
12470;DHT22;36499;46.484;13.832;2023-04-01T04:18:30;6.70;99.90
12470;DHT22;36499;46.484;13.832;2023-04-01T04:20:59;6.60;99.90
12470;DHT22;36499;46.484;13.832;2023-04-01T04:23:26;6.60;99.90
12470;DHT22;36499;46.484;13.832;2023-04-01T04:25:56;6.60;99.90
12470;DHT22;36499;46.484;13.832;2023-04-01T04:28:26;6.60;99.90
12470;DHT22;36499;46.484;13.832;2023-04-01T04:30:54;6.50;99.90
12470;DHT22;36499;46.484;13.832;2023-04-01T04:33:22;6.60;99.90
12470;DHT22;36499;46.484;13.832;2023-04-01T04:35:51;6.50;99.90
12470;DHT22;36499;46.484;13.832;2023-04-01T04:38:22;6.50;99.90
12470;DHT22;36499;46.484;13.832;2023-04-01T04:40:50;6.50;99.90
12470;DHT22;36499;46.484;13.832;2023-04-01T04:43:18;6.50;99.90
12470;DHT22;36499;46.484;13.832;2023-04-01T04:45:46;6.50;99.90
12470;DHT22;36499;46.484;13.832;2023-04-01T04:48:15;6.50;99.90
12470;DHT22;36499;46.484;13.832;2023-04-01T04:50:44;6.50;99.90
12470;DHT22;36499;46.484;13.832;2023-04-01T04:53:12;6.40;99.90
12470;DHT22;36499;46.484;13.832;2023-04-01T04:55:44;6.40;99.90
12470;DHT22;36499;46.484;13.832;2023-04-01T04:58:11;6.40;99.90
12470;DHT22;36499;46.484;13.832;2023-04-01T05:00:39;6.40;99.90
12470;DHT22;36499;46.484;13.832;2023-04-01T05:03:07;6.40;99.90
12470;DHT22;36499;46.484;13.832;2023-04-01T05:05:34;6.40;99.90
12470;DHT22;36499;46.484;13.832;2023-04-01T05:08:01;6.30;99.90
12470;DHT22;36499;46.484;13.832;2023-04-01T05:10:29;6.20;99.90
12470;DHT22;36499;46.484;13.832;2023-04-01T05:12:58;6.10;99.90
12470;DHT22;36499;46.484;13.832;2023-04-01T05:15:25;6.20;99.90
12470;DHT22;36499;46.484;13.832;2023-04-01T05:17:52;6.20;99.90
12470;DHT22;36499;46.484;13.832;2023-04-01T05:20:20;6.20;99.90
12470;DHT22;36499;46.484;13.832;2023-04-01T05:22:47;6.30;99.90
12470;DHT22;36499;46.484;13.832;2023-04-01T05:25:14;6.30;99.90
12470;DHT22;36499;46.484;13.832;2023-04-01T05:27:41;6.30;99.90
12470;DHT22;36499;46.484;13.832;2023-04-01T05:30:11;6.30;99.90
12470;DHT22;36499;46.484;13.832;2023-04-01T05:32:39;6.30;99.90
12470;DHT22;36499;46.484;13.832;2023-04-01T05:35:07;6.30;99.90
12470;DHT22;36499;46.484;13.832;2023-04-01T05:37:35;6.30;99.90
12470;DHT22;36499;46.484;13.832;2023-04-01T05:40:04;6.30;99.90
12470;DHT22;36499;46.484;13.832;2023-04-01T05:42:33;6.30;99.90
12470;DHT22;36499;46.484;13.832;2023-04-01T05:45:01;6.30;99.90
12470;DHT22;36499;46.484;13.832;2023-04-01T05:47:29;6.40;99.90
12470;DHT22;36499;46.484;13.832;2023-04-01T05:49:57;6.40;99.90
12470;DHT22;36499;46.484;13.832;2023-04-01T05:52:24;6.50;99.90
12470;DHT22;36499;46.484;13.832;2023-04-01T05:54:51;6.50;99.90
12470;DHT22;36499;46.484;13.832;2023-04-01T05:57:18;6.60;99.90
12470;DHT22;36499;46.484;13.832;2023-04-01T05:59:46;6.70;99.90
12470;DHT22;36499;46.484;13.832;2023-04-01T06:02:17;6.70;99.90
12470;DHT22;36499;46.484;13.832;2023-04-01T06:04:46;6.80;99.90
12470;DHT22;36499;46.484;13.832;2023-04-01T06:07:14;6.90;99.90
12470;DHT22;36499;46.484;13.832;2023-04-01T06:09:43;6.80;99.90
12470;DHT22;36499;46.484;13.832;2023-04-01T06:12:29;6.90;99.90
12470;DHT22;36499;46.484;13.832;2023-04-01T06:15:13;6.90;99.90
12470;DHT22;36499;46.484;13.832;2023-04-01T06:18:10;6.90;99.90
12470;DHT22;36499;46.484;13.832;2023-04-01T06:21:01;6.90;99.90
12470;DHT22;36499;46.484;13.832;2023-04-01T06:23:53;7.00;99.90
12470;DHT22;36499;46.484;13.832;2023-04-01T06:26:34;7.00;99.90
12470;DHT22;36499;46.484;13.832;2023-04-01T06:29:39;7.00;99.90
12470;DHT22;36499;46.484;13.832;2023-04-01T06:32:27;7.20;99.90
12470;DHT22;36499;46.484;13.832;2023-04-01T06:35:17;7.30;99.90
12470;DHT22;36499;46.484;13.832;2023-04-01T06:38:09;7.30;99.90
12470;DHT22;36499;46.484;13.832;2023-04-01T06:41:01;7.40;99.90
12470;DHT22;36499;46.484;13.832;2023-04-01T06:43:53;7.50;99.90
12470;DHT22;36499;46.484;13.832;2023-04-01T06:46:37;7.60;99.90
12470;DHT22;36499;46.484;13.832;2023-04-01T06:49:29;7.80;99.90
12470;DHT22;36499;46.484;13.832;2023-04-01T06:52:11;7.90;99.90
12470;DHT22;36499;46.484;13.832;2023-04-01T06:54:50;8.20;99.90
12470;DHT22;36499;46.484;13.832;2023-04-01T06:57:27;8.40;99.90
12470;DHT22;36499;46.484;13.832;2023-04-01T06:59:59;8.60;99.90
12470;DHT22;36499;46.484;13.832;2023-04-01T07:02:36;8.70;99.90
12470;DHT22;36499;46.484;13.832;2023-04-01T07:05:08;8.70;99.90
12470;DHT22;36499;46.484;13.832;2023-04-01T07:07:42;8.80;99.90
12470;DHT22;36499;46.484;13.832;2023-04-01T07:10:17;8.90;99.90
12470;DHT22;36499;46.484;13.832;2023-04-01T07:13:02;8.90;99.90
12470;DHT22;36499;46.484;13.832;2023-04-01T07:15:38;9.00;99.90
12470;DHT22;36499;46.484;13.832;2023-04-01T07:18:13;9.20;99.90
12470;DHT22;36499;46.484;13.832;2023-04-01T07:20:44;9.30;99.90
12470;DHT22;36499;46.484;13.832;2023-04-01T07:23:21;9.40;99.90
12470;DHT22;36499;46.484;13.832;2023-04-01T07:25:55;9.50;99.90
12470;DHT22;36499;46.484;13.832;2023-04-01T07:28:30;9.50;99.90
12470;DHT22;36499;46.484;13.832;2023-04-01T07:31:07;9.70;99.90
12470;DHT22;36499;46.484;13.832;2023-04-01T07:33:48;9.90;99.90
12470;DHT22;36499;46.484;13.832;2023-04-01T07:36:27;10.20;99.90
12470;DHT22;36499;46.484;13.832;2023-04-01T07:39:09;10.40;99.90
12470;DHT22;36499;46.484;13.832;2023-04-01T07:41:56;10.60;99.90
12470;DHT22;36499;46.484;13.832;2023-04-01T07:44:34;10.70;99.90
12470;DHT22;36499;46.484;13.832;2023-04-01T07:47:30;10.70;99.90
12470;DHT22;36499;46.484;13.832;2023-04-01T07:50:17;10.80;99.90
12470;DHT22;36499;46.484;13.832;2023-04-01T07:52:58;10.80;99.90
12470;DHT22;36499;46.484;13.832;2023-04-01T07:55:39;11.00;99.90
12470;DHT22;36499;46.484;13.832;2023-04-01T07:58:21;11.20;99.90
12470;DHT22;36499;46.484;13.832;2023-04-01T08:01:02;11.40;99.90
12470;DHT22;36499;46.484;13.832;2023-04-01T08:03:48;11.40;99.90
12470;DHT22;36499;46.484;13.832;2023-04-01T08:06:33;11.40;99.90
12470;DHT22;36499;46.484;13.832;2023-04-01T08:09:12;11.40;99.90
12470;DHT22;36499;46.484;13.832;2023-04-01T08:11:56;11.50;99.90
12470;DHT22;36499;46.484;13.832;2023-04-01T08:14:39;11.70;99.90
12470;DHT22;36499;46.484;13.832;2023-04-01T08:17:20;11.80;99.90
12470;DHT22;36499;46.484;13.832;2023-04-01T08:20:04;11.90;99.90
12470;DHT22;36499;46.484;13.832;2023-04-01T08:22:42;12.10;99.90
12470;DHT22;36499;46.484;13.832;2023-04-01T08:25:17;12.20;99.90
12470;DHT22;36499;46.484;13.832;2023-04-01T08:27:52;12.40;99.90
12470;DHT22;36499;46.484;13.832;2023-04-01T08:30:26;12.50;99.90
12470;DHT22;36499;46.484;13.832;2023-04-01T08:33:05;12.50;99.90
12470;DHT22;36499;46.484;13.832;2023-04-01T08:35:41;12.60;99.90
12470;DHT22;36499;46.484;13.832;2023-04-01T08:38:17;12.80;99.90
12470;DHT22;36499;46.484;13.832;2023-04-01T08:40:57;13.00;99.90
12470;DHT22;36499;46.484;13.832;2023-04-01T08:46:55;13.30;99.90
12470;DHT22;36499;46.484;13.832;2023-04-01T08:50:03;13.30;99.90
12470;DHT22;36499;46.484;13.832;2023-04-01T08:52:46;13.40;99.90
12470;DHT22;36499;46.484;13.832;2023-04-01T08:55:30;13.70;99.90
12470;DHT22;36499;46.484;13.832;2023-04-01T08:58:32;14.00;99.90
12470;DHT22;36499;46.484;13.832;2023-04-01T09:01:16;14.20;99.90
12470;DHT22;36499;46.484;13.832;2023-04-01T09:07:12;14.30;99.90
12470;DHT22;36499;46.484;13.832;2023-04-01T09:13:27;14.50;99.90
12470;DHT22;36499;46.484;13.832;2023-04-01T09:16:19;14.50;99.90
12470;DHT22;36499;46.484;13.832;2023-04-01T09:19:22;14.90;99.90
12470;DHT22;36499;46.484;13.832;2023-04-01T09:25:31;15.30;99.90
12470;DHT22;36499;46.484;13.832;2023-04-01T09:28:26;15.40;99.90
12470;DHT22;36499;46.484;13.832;2023-04-01T09:31:39;15.40;99.90
12470;DHT22;36499;46.484;13.832;2023-04-01T09:37:21;15.90;99.90
12470;DHT22;36499;46.484;13.832;2023-04-01T09:40:28;16.10;99.90
12470;DHT22;36499;46.484;13.832;2023-04-01T09:43:25;16.30;99.90
12470;DHT22;36499;46.484;13.832;2023-04-01T09:46:07;16.40;99.90
12470;DHT22;36499;46.484;13.832;2023-04-01T09:48:57;16.50;99.90
12470;DHT22;36499;46.484;13.832;2023-04-01T09:51:47;16.70;99.90
12470;DHT22;36499;46.484;13.832;2023-04-01T09:54:41;16.80;99.90
12470;DHT22;36499;46.484;13.832;2023-04-01T09:57:57;16.80;99.90
12470;DHT22;36499;46.484;13.832;2023-04-01T10:01:03;16.70;99.90
12470;DHT22;36499;46.484;13.832;2023-04-01T10:04:12;16.50;99.90
12470;DHT22;36499;46.484;13.832;2023-04-01T10:07:22;16.50;99.90
12470;DHT22;36499;46.484;13.832;2023-04-01T10:10:35;16.60;99.90
12470;DHT22;36499;46.484;13.832;2023-04-01T10:16:58;16.90;99.90
12470;DHT22;36499;46.484;13.832;2023-04-01T10:20:19;16.90;99.90
12470;DHT22;36499;46.484;13.832;2023-04-01T10:23:27;16.70;99.90
12470;DHT22;36499;46.484;13.832;2023-04-01T10:26:32;16.70;99.90
12470;DHT22;36499;46.484;13.832;2023-04-01T10:29:42;16.60;99.90
12470;DHT22;36499;46.484;13.832;2023-04-01T10:33:10;16.60;99.90
12470;DHT22;36499;46.484;13.832;2023-04-01T10:36:13;16.50;99.90
12470;DHT22;36499;46.484;13.832;2023-04-01T10:42:35;16.60;99.90
12470;DHT22;36499;46.484;13.832;2023-04-01T10:45:42;16.40;99.90
12470;DHT22;36499;46.484;13.832;2023-04-01T10:55:33;16.40;99.90
12470;DHT22;36499;46.484;13.832;2023-04-01T10:58:43;16.50;99.90
12470;DHT22;36499;46.484;13.832;2023-04-01T11:02:05;16.60;99.90
12470;DHT22;36499;46.484;13.832;2023-04-01T11:12:16;17.50;99.90
12470;DHT22;36499;46.484;13.832;2023-04-01T11:22:09;18.00;99.90
12470;DHT22;36499;46.484;13.832;2023-04-01T11:25:08;18.10;99.90
12470;DHT22;36499;46.484;13.832;2023-04-01T11:31:20;18.60;99.90
12470;DHT22;36499;46.484;13.832;2023-04-01T11:34:03;18.80;99.90
12470;DHT22;36499;46.484;13.832;2023-04-01T11:36:47;19.10;99.90
12470;DHT22;36499;46.484;13.832;2023-04-01T11:39:32;19.30;99.90
12470;DHT22;36499;46.484;13.832;2023-04-01T11:42:15;19.40;99.90
12470;DHT22;36499;46.484;13.832;2023-04-01T11:45:00;19.60;99.20
12470;DHT22;36499;46.484;13.832;2023-04-01T11:47:52;19.70;99.20
12470;DHT22;36499;46.484;13.832;2023-04-01T11:50:46;19.90;97.40
12470;DHT22;36499;46.484;13.832;2023-04-01T11:53:44;20.20;97.10
12470;DHT22;36499;46.484;13.832;2023-04-01T11:56:32;20.50;96.30
12470;DHT22;36499;46.484;13.832;2023-04-01T12:02:33;20.40;93.80
12470;DHT22;36499;46.484;13.832;2023-04-01T12:05:32;20.50;93.70
12470;DHT22;36499;46.484;13.832;2023-04-01T12:08:25;20.80;92.40
12470;DHT22;36499;46.484;13.832;2023-04-01T12:11:07;21.00;91.30
12470;DHT22;36499;46.484;13.832;2023-04-01T12:13:49;21.20;89.50
12470;DHT22;36499;46.484;13.832;2023-04-01T12:16:39;21.20;88.40
12470;DHT22;36499;46.484;13.832;2023-04-01T12:19:18;21.40;88.80
12470;DHT22;36499;46.484;13.832;2023-04-01T12:22:03;21.50;88.90
12470;DHT22;36499;46.484;13.832;2023-04-01T12:24:47;21.60;85.30
12470;DHT22;36499;46.484;13.832;2023-04-01T12:27:42;21.60;81.50
12470;DHT22;36499;46.484;13.832;2023-04-01T12:30:37;21.70;81.70
12470;DHT22;36499;46.484;13.832;2023-04-01T12:33:26;21.90;79.10
12470;DHT22;36499;46.484;13.832;2023-04-01T12:36:10;22.20;78.00
12470;DHT22;36499;46.484;13.832;2023-04-01T12:39:17;22.50;77.70
12470;DHT22;36499;46.484;13.832;2023-04-01T12:42:05;22.60;75.90
12470;DHT22;36499;46.484;13.832;2023-04-01T12:44:57;22.80;75.10
12470;DHT22;36499;46.484;13.832;2023-04-01T12:47:56;23.00;75.30
12470;DHT22;36499;46.484;13.832;2023-04-01T12:51:01;23.30;75.10
12470;DHT22;36499;46.484;13.832;2023-04-01T12:57:19;23.60;71.50
12470;DHT22;36499;46.484;13.832;2023-04-01T13:00:18;23.70;68.00
12470;DHT22;36499;46.484;13.832;2023-04-01T13:03:19;23.90;68.60
12470;DHT22;36499;46.484;13.832;2023-04-01T13:06:28;24.00;64.00
12470;DHT22;36499;46.484;13.832;2023-04-01T13:09:16;23.40;65.40
12470;DHT22;36499;46.484;13.832;2023-04-01T13:12:09;23.40;65.10
12470;DHT22;36499;46.484;13.832;2023-04-01T13:15:19;23.50;63.60
12470;DHT22;36499;46.484;13.832;2023-04-01T13:17:55;23.70;65.00
12470;DHT22;36499;46.484;13.832;2023-04-01T13:20:39;23.90;64.80
12470;DHT22;36499;46.484;13.832;2023-04-01T13:23:27;24.00;63.70
12470;DHT22;36499;46.484;13.832;2023-04-01T13:26:13;24.00;62.30
12470;DHT22;36499;46.484;13.832;2023-04-01T13:28:50;24.00;62.40
12470;DHT22;36499;46.484;13.832;2023-04-01T13:31:33;23.70;61.20
12470;DHT22;36499;46.484;13.832;2023-04-01T13:34:26;23.30;60.10
12470;DHT22;36499;46.484;13.832;2023-04-01T13:37:13;22.90;56.30
12470;DHT22;36499;46.484;13.832;2023-04-01T13:40:03;22.50;55.00
12470;DHT22;36499;46.484;13.832;2023-04-01T13:42:48;22.10;56.30
12470;DHT22;36499;46.484;13.832;2023-04-01T13:45:21;21.90;58.60
12470;DHT22;36499;46.484;13.832;2023-04-01T13:51:15;21.10;56.50
12470;DHT22;36499;46.484;13.832;2023-04-01T13:54:22;20.80;57.20
12470;DHT22;36499;46.484;13.832;2023-04-01T13:57:14;20.50;59.60
12470;DHT22;36499;46.484;13.832;2023-04-01T14:00:17;20.20;60.00
12470;DHT22;36499;46.484;13.832;2023-04-01T14:05:53;19.90;65.40
12470;DHT22;36499;46.484;13.832;2023-04-01T14:11:57;19.60;67.90
12470;DHT22;36499;46.484;13.832;2023-04-01T14:14:44;19.50;68.60
12470;DHT22;36499;46.484;13.832;2023-04-01T14:17:34;19.50;69.70
12470;DHT22;36499;46.484;13.832;2023-04-01T14:20:24;19.40;69.10
12470;DHT22;36499;46.484;13.832;2023-04-01T14:23:09;18.90;67.50
12470;DHT22;36499;46.484;13.832;2023-04-01T14:26:10;18.50;65.80
12470;DHT22;36499;46.484;13.832;2023-04-01T14:28:54;18.40;63.40
12470;DHT22;36499;46.484;13.832;2023-04-01T14:31:35;18.30;64.60
12470;DHT22;36499;46.484;13.832;2023-04-01T14:34:28;18.30;69.80
12470;DHT22;36499;46.484;13.832;2023-04-01T14:37:46;18.30;76.90
12470;DHT22;36499;46.484;13.832;2023-04-01T14:40:27;18.30;78.40
12470;DHT22;36499;46.484;13.832;2023-04-01T14:43:23;18.20;78.40
12470;DHT22;36499;46.484;13.832;2023-04-01T14:46:13;18.30;78.60
12470;DHT22;36499;46.484;13.832;2023-04-01T14:48:52;18.30;77.20
12470;DHT22;36499;46.484;13.832;2023-04-01T14:51:32;18.40;78.10
12470;DHT22;36499;46.484;13.832;2023-04-01T14:54:06;18.50;77.90
12470;DHT22;36499;46.484;13.832;2023-04-01T14:56:43;18.50;77.50
12470;DHT22;36499;46.484;13.832;2023-04-01T14:59:17;18.60;75.10
12470;DHT22;36499;46.484;13.832;2023-04-01T15:01:58;18.60;74.50
12470;DHT22;36499;46.484;13.832;2023-04-01T15:04:49;18.60;74.50
12470;DHT22;36499;46.484;13.832;2023-04-01T15:07:49;18.60;74.70
12470;DHT22;36499;46.484;13.832;2023-04-01T15:10:58;18.40;75.00
12470;DHT22;36499;46.484;13.832;2023-04-01T15:16:59;18.10;76.90
12470;DHT22;36499;46.484;13.832;2023-04-01T15:19:56;18.00;78.50
12470;DHT22;36499;46.484;13.832;2023-04-01T15:22:48;17.80;81.00
12470;DHT22;36499;46.484;13.832;2023-04-01T15:25:48;17.60;82.40
12470;DHT22;36499;46.484;13.832;2023-04-01T15:28:37;17.40;83.10
12470;DHT22;36499;46.484;13.832;2023-04-01T15:31:14;17.30;83.40
12470;DHT22;36499;46.484;13.832;2023-04-01T15:34:13;17.30;82.50
12470;DHT22;36499;46.484;13.832;2023-04-01T15:36:53;17.20;83.10
12470;DHT22;36499;46.484;13.832;2023-04-01T15:39:39;17.20;83.70
12470;DHT22;36499;46.484;13.832;2023-04-01T15:42:27;17.00;82.70
12470;DHT22;36499;46.484;13.832;2023-04-01T15:45:16;16.80;85.60
12470;DHT22;36499;46.484;13.832;2023-04-01T15:47:59;16.80;84.20
12470;DHT22;36499;46.484;13.832;2023-04-01T15:50:48;16.80;84.00
12470;DHT22;36499;46.484;13.832;2023-04-01T15:53:31;16.70;85.10
12470;DHT22;36499;46.484;13.832;2023-04-01T15:56:47;16.70;86.50
12470;DHT22;36499;46.484;13.832;2023-04-01T15:59:53;16.60;86.90
12470;DHT22;36499;46.484;13.832;2023-04-01T16:02:32;16.60;87.50
12470;DHT22;36499;46.484;13.832;2023-04-01T16:05:16;16.60;88.70
12470;DHT22;36499;46.484;13.832;2023-04-01T16:08:02;16.70;89.00
12470;DHT22;36499;46.484;13.832;2023-04-01T16:11:08;16.80;88.10
12470;DHT22;36499;46.484;13.832;2023-04-01T16:13:55;16.70;87.10
12470;DHT22;36499;46.484;13.832;2023-04-01T16:16:43;16.60;77.30
12470;DHT22;36499;46.484;13.832;2023-04-01T16:19:35;16.50;74.20
12470;DHT22;36499;46.484;13.832;2023-04-01T16:22:13;16.40;74.30
12470;DHT22;36499;46.484;13.832;2023-04-01T16:24:46;16.30;75.50
12470;DHT22;36499;46.484;13.832;2023-04-01T16:27:25;16.20;75.00
12470;DHT22;36499;46.484;13.832;2023-04-01T16:30:25;16.20;74.60
12470;DHT22;36499;46.484;13.832;2023-04-01T16:33:03;16.00;74.10
12470;DHT22;36499;46.484;13.832;2023-04-01T16:35:43;16.00;74.70
12470;DHT22;36499;46.484;13.832;2023-04-01T16:38:22;16.00;75.10
12470;DHT22;36499;46.484;13.832;2023-04-01T16:41:01;15.90;83.00
12470;DHT22;36499;46.484;13.832;2023-04-01T16:43:41;15.70;87.00
12470;DHT22;36499;46.484;13.832;2023-04-01T16:46:32;15.50;87.50
12470;DHT22;36499;46.484;13.832;2023-04-01T16:49:13;15.20;88.60
12470;DHT22;36499;46.484;13.832;2023-04-01T16:52:04;14.90;90.20
12470;DHT22;36499;46.484;13.832;2023-04-01T16:54:47;14.60;91.90
12470;DHT22;36499;46.484;13.832;2023-04-01T16:57:23;14.50;92.20
12470;DHT22;36499;46.484;13.832;2023-04-01T16:59:58;14.30;92.30
12470;DHT22;36499;46.484;13.832;2023-04-01T17:02:33;14.30;93.90
12470;DHT22;36499;46.484;13.832;2023-04-01T17:05:07;14.10;94.60
12470;DHT22;36499;46.484;13.832;2023-04-01T17:07:48;14.10;95.90
12470;DHT22;36499;46.484;13.832;2023-04-01T17:10:37;14.10;96.90
12470;DHT22;36499;46.484;13.832;2023-04-01T17:13:29;14.00;97.30
12470;DHT22;36499;46.484;13.832;2023-04-01T17:19:18;13.90;95.10
12470;DHT22;36499;46.484;13.832;2023-04-01T17:22:04;13.80;97.00
12470;DHT22;36499;46.484;13.832;2023-04-01T17:24:51;13.70;97.50
12470;DHT22;36499;46.484;13.832;2023-04-01T17:27:39;13.70;98.00
12470;DHT22;36499;46.484;13.832;2023-04-01T17:30:33;13.70;98.00
12470;DHT22;36499;46.484;13.832;2023-04-01T17:33:15;13.70;97.80
12470;DHT22;36499;46.484;13.832;2023-04-01T17:35:58;13.60;98.50
12470;DHT22;36499;46.484;13.832;2023-04-01T17:38:46;13.50;98.70
12470;DHT22;36499;46.484;13.832;2023-04-01T17:41:42;13.30;99.10
12470;DHT22;36499;46.484;13.832;2023-04-01T17:44:25;13.30;99.70
12470;DHT22;36499;46.484;13.832;2023-04-01T17:47:28;13.20;99.40
12470;DHT22;36499;46.484;13.832;2023-04-01T17:50:18;13.10;99.90
12470;DHT22;36499;46.484;13.832;2023-04-01T17:53:01;13.00;99.90
12470;DHT22;36499;46.484;13.832;2023-04-01T17:55:59;12.80;99.90
12470;DHT22;36499;46.484;13.832;2023-04-01T17:58:44;12.50;99.90
12470;DHT22;36499;46.484;13.832;2023-04-01T18:01:22;12.40;99.90